Pompano Beach, FL

3:31 AM EST on December 11, 2016 (GMT -0500)
Pompano Beach | | Change Station
Active Advisory: Coastal Hazard Statement

Elev 20 ft 26.25 °N, 80.11 °W | Updated 46 days ago

Overcast
Overcast
79 °F
Feels Like 79 °F
N
14
Wind Variable Wind from East

Today
High -- | Low -- °F
--% Chance of Precip.
Yesterday
High -- | Low -- °F
Precip. -- in
Pressure 30.16 in
Visibility 10.0 miles
Clouds Clear
Dew Point 61 °F
Humidity 54%
Rainfall 0.00 in
Snow Depth Not available.
6:58 AM 5:29 PM
Waxing Gibbous, 90% visible
METAR KPMP 251453Z 08012KT 10SM CLR 26/16 A3015 RMK AO2 SLP211 T02610161 51012
Pressure 30.16 in
Visibility 10.0 miles
Clouds Clear
Dew Point 61 °F
Humidity 54%
Rainfall 0.00 in
Snow Depth Not available.
6:58 AM 5:29 PM
Waxing Gibbous, 90% visible
METAR KPMP 251453Z 08012KT 10SM CLR 26/16 A3015 RMK AO2 SLP211 T02610161 51012

10-Day Weather Forecast

Almanac

Astronomy

Dec. 11, 2016 Rise Set
Actual Time
Civil Twilight
Nautical Twilight
Astronomical Twilight
Moon
Length of Visible Light
Length of Day
Tomorrow will be .
, % of the Moon is Illuminated

Today's Extremes

State Highs State Lows

Community

WunderPhotos

Upload Photos

1,956,705 photos uploaded!

WunderBlog® & News

Nearby

Air Quality

  Air Quality AQ Index Pollutant
Not available.

Snow Depth

Station Depth Elevation

Earthquake Activity

City Distance Mag. Time & Date
Minimum magnitude displayed is 2.5.

Coastal Water Temperatures

Place Temperature

Stations

Nearby Weather Stations

Station Location Temp. Windchill Dew Point Humidity Wind Precip. Elev Updated Type
                   

Watches & Warnings

Coastal Hazard Statement
Issued: 8:43 PM EST Dec. 10, 2016 – National Weather Service

... High rip current risk remains in effect through Sunday
evening...

* timing... tonight and Sunday.

* Impacts... life threatening rip currents are likely.

Precautionary/preparedness actions...

There is a high risk of rip currents.

Rip currents are powerful channels of water flowing quickly away
from shore... which occur most often at low spots or breaks in The
Sandbar and in the vicinity of structures such as groins...
jetties and piers. Heed the advice of lifeguards... beach patrol
flags and signs.

If you become caught in a rip current... Yell for help. Remain
calm... do not exhaust yourself and stay afloat while waiting for
help. If you have to swim out of a rip current... swim parallel to
shore and back toward the beach when possible. Do not attempt to
swim directly against a rip current as you will tire quickly.

Swim near a lifeguard. If caught in a rip current remain calm.
Don't fight the current. Swim in a direction following the
shoreline. If unable to escape, face the shore and call or wave
for help. If tired, float or tread water until out of the rip
current.